Page, AZ

8:09 AM MDT on August 27, 2016 (GMT -0600)
grandview st | | Change Station
Active Advisory: Flash Flood Watch

Elev 4275 ft 36.93 °N, 111.46 °W | Updated 14 minutes ago

Light Rain
Light Rain
54.4 °F
Feels Like 54.4 °F
N
0.0
Wind Variable Wind from ENE

Today
High -- | Low -- °F
--% Chance of Precip.
Yesterday
High -- | Low -- °F
Precip. -- in
Pressure 29.98 in
Visibility 10.0 miles
Clouds Mostly Cloudy 9000 ft
Overcast 11000 ft
Dew Point 49 °F
Humidity 83%
Rainfall 0.00 in
Snow Depth Not available.
6:53 AM 8:00 PM
Waning Crescent, 24% visible
METAR KPGA 271353Z AUTO 34003KT 10SM -RA BKN090 OVC110 17/13 A3015 RMK AO2 RAE10B42 SLP152 P0001 T01720128 TSNO
Pressure 29.98 in
Visibility 10.0 miles
Clouds Mostly Cloudy 9000 ft
Overcast 11000 ft
Dew Point 49 °F
Humidity 83%
Rainfall 0.00 in
Snow Depth Not available.
6:53 AM 8:00 PM
Waning Crescent, 24% visible
METAR KPGA 271353Z AUTO 34003KT 10SM -RA BKN090 OVC110 17/13 A3015 RMK AO2 RAE10B42 SLP152 P0001 T01720128 TSNO

10-Day Weather Forecast

Almanac

Astronomy

Aug. 27, 2016 Rise Set
Actual Time
Civil Twilight
Nautical Twilight
Astronomical Twilight
Moon
Length of Visible Light
Length of Day
Tomorrow will be .
, % of the Moon is Illuminated

Today's Extremes

State Highs State Lows

Community

WunderPhotos

Upload Photos

1,935,340 photos uploaded!

WunderBlog® & News

Nearby

Air Quality

  Air Quality AQ Index Pollutant
Not available.

Snow Depth

Station Depth Elevation

Earthquake Activity

City Distance Mag. Time & Date
Minimum magnitude displayed is 2.5.

Coastal Water Temperatures

Place Temperature

Stations

Nearby Weather Stations

Station Location Temp. Windchill Dew Point Humidity Wind Precip. Elev Updated Type
                   

Watches & Warnings

Flash Flood Watch
Issued: 1:28 AM MDT Aug. 27, 2016 – National Weather Service

... Flash Flood Watch in effect through this evening...

The National Weather Service in Flagstaff has issued a

* Flash Flood Watch for portions of northern Arizona... including
the following areas... Coconino Plateau... Grand Canyon
country... Kaibab Plateau... Little Colorado River valley in
Coconino County and Marble and Glen canyons... Black Mesa area
and northeast plateaus and mesas Hwy 264 northward... Oak Creek
and Sycamore canyons... western Mogollon Rim... Yavapai County
mountains and Yavapai County valleys and basins.

* Through this evening

* an upper level disturbance will act on available moisture to
produce slow moving thunderstorms through sunset today

* areas in the watch include the Grand Canyon, havasupai nation,
Page.

Precautionary/preparedness actions...

A Flash Flood Watch means that developing conditions may lead to
flash flooding within the watch area. People... especially those
located along area creeks... rivers or other flash flood prone
areas... should continue to monitor later forecasts and be prepared
to take immediate action should flash flood warnings be issued.



41